sensor_id;sensor_type;location;lat;lon;timestamp;temperature;humidity
22132;DHT22;11232;51.748;19.390;2023-08-01T11:54:56;23.50;99.60
22132;DHT22;11232;51.748;19.390;2023-08-01T11:57:22;23.30;99.90
22132;DHT22;11232;51.748;19.390;2023-08-01T11:59:52;23.60;99.90
22132;DHT22;11232;51.748;19.390;2023-08-01T12:04:48;23.60;99.30
22132;DHT22;11232;51.748;19.390;2023-08-01T12:07:15;23.30;99.80
22132;DHT22;11232;51.748;19.390;2023-08-01T12:09:41;23.10;99.90
22132;DHT22;11232;51.748;19.390;2023-08-01T12:12:08;23.00;99.90
22132;DHT22;11232;51.748;19.390;2023-08-01T12:14:34;22.80;99.90
22132;DHT22;11232;51.748;19.390;2023-08-01T12:17:04;22.70;99.90
22132;DHT22;11232;51.748;19.390;2023-08-01T12:19:30;22.70;99.90
22132;DHT22;11232;51.748;19.390;2023-08-01T12:21:55;22.60;99.90
22132;DHT22;11232;51.748;19.390;2023-08-01T12:24:21;22.50;99.90
22132;DHT22;11232;51.748;19.390;2023-08-01T12:26:46;22.40;99.90
22132;DHT22;11232;51.748;19.390;2023-08-01T12:29:12;22.50;99.90
22132;DHT22;11232;51.748;19.390;2023-08-01T12:31:38;22.60;99.90
22132;DHT22;11232;51.748;19.390;2023-08-01T12:34:03;22.60;99.90
22132;DHT22;11232;51.748;19.390;2023-08-01T12:36:29;22.20;99.90
22132;DHT22;11232;51.748;19.390;2023-08-01T12:38:54;22.10;99.90
22132;DHT22;11232;51.748;19.390;2023-08-01T12:41:20;22.10;99.90
22132;DHT22;11232;51.748;19.390;2023-08-01T12:43:45;22.30;99.90
22132;DHT22;11232;51.748;19.390;2023-08-01T12:46:11;22.20;99.90
22132;DHT22;11232;51.748;19.390;2023-08-01T12:48:37;22.00;99.90
22132;DHT22;11232;51.748;19.390;2023-08-01T12:51:02;21.80;99.90
22132;DHT22;11232;51.748;19.390;2023-08-01T12:53:28;21.70;99.90
22132;DHT22;11232;51.748;19.390;2023-08-01T12:55:53;21.70;99.90
22132;DHT22;11232;51.748;19.390;2023-08-01T12:58:19;21.60;99.90
22132;DHT22;11232;51.748;19.390;2023-08-01T13:00:45;21.50;99.90
22132;DHT22;11232;51.748;19.390;2023-08-01T13:03:11;21.40;99.90
22132;DHT22;11232;51.748;19.390;2023-08-01T13:05:38;21.30;99.90
22132;DHT22;11232;51.748;19.390;2023-08-01T13:08:05;21.30;99.90
22132;DHT22;11232;51.748;19.390;2023-08-01T13:10:35;21.30;99.90
22132;DHT22;11232;51.748;19.390;2023-08-01T13:13:01;21.40;99.90
22132;DHT22;11232;51.748;19.390;2023-08-01T13:15:27;21.60;99.90
22132;DHT22;11232;51.748;19.390;2023-08-01T13:17:53;21.60;99.90
22132;DHT22;11232;51.748;19.390;2023-08-01T13:20:19;21.50;99.90
22132;DHT22;11232;51.748;19.390;2023-08-01T13:22:46;21.50;99.90
22132;DHT22;11232;51.748;19.390;2023-08-01T13:25:13;21.50;99.90
22132;DHT22;11232;51.748;19.390;2023-08-01T13:27:39;21.70;99.90
22132;DHT22;11232;51.748;19.390;2023-08-01T13:30:05;21.90;99.90
22132;DHT22;11232;51.748;19.390;2023-08-01T13:32:31;21.90;99.90
22132;DHT22;11232;51.748;19.390;2023-08-01T13:34:57;22.10;99.90
22132;DHT22;11232;51.748;19.390;2023-08-01T13:37:22;22.40;99.90
22132;DHT22;11232;51.748;19.390;2023-08-01T13:39:48;22.40;99.90
22132;DHT22;11232;51.748;19.390;2023-08-01T13:42:14;22.30;99.90
22132;DHT22;11232;51.748;19.390;2023-08-01T13:44:40;22.20;99.90
22132;DHT22;11232;51.748;19.390;2023-08-01T13:47:06;22.00;99.90
22132;DHT22;11232;51.748;19.390;2023-08-01T13:49:31;21.80;99.90
22132;DHT22;11232;51.748;19.390;2023-08-01T13:51:58;21.60;99.90
22132;DHT22;11232;51.748;19.390;2023-08-01T13:54:24;21.50;99.90
22132;DHT22;11232;51.748;19.390;2023-08-01T13:56:49;21.40;99.90
22132;DHT22;11232;51.748;19.390;2023-08-01T13:59:15;21.30;99.90
22132;DHT22;11232;51.748;19.390;2023-08-01T14:01:41;21.30;99.90
22132;DHT22;11232;51.748;19.390;2023-08-01T14:04:06;21.20;99.90
22132;DHT22;11232;51.748;19.390;2023-08-01T14:06:32;21.40;99.90
22132;DHT22;11232;51.748;19.390;2023-08-01T14:08:57;21.80;99.90
22132;DHT22;11232;51.748;19.390;2023-08-01T14:11:23;22.10;99.90
22132;DHT22;11232;51.748;19.390;2023-08-01T14:13:49;22.20;99.90
22132;DHT22;11232;51.748;19.390;2023-08-01T14:16:14;22.00;99.90
22132;DHT22;11232;51.748;19.390;2023-08-01T14:18:42;22.10;99.90
22132;DHT22;11232;51.748;19.390;2023-08-01T14:21:08;21.90;99.90
22132;DHT22;11232;51.748;19.390;2023-08-01T14:23:33;21.90;99.90
22132;DHT22;11232;51.748;19.390;2023-08-01T14:25:59;22.10;99.90
22132;DHT22;11232;51.748;19.390;2023-08-01T14:28:25;22.00;99.90
22132;DHT22;11232;51.748;19.390;2023-08-01T14:30:50;21.70;99.90
22132;DHT22;11232;51.748;19.390;2023-08-01T14:33:16;21.60;99.90
22132;DHT22;11232;51.748;19.390;2023-08-01T14:35:42;21.30;99.90
22132;DHT22;11232;51.748;19.390;2023-08-01T14:38:07;21.10;99.90
22132;DHT22;11232;51.748;19.390;2023-08-01T14:40:34;21.00;99.90
22132;DHT22;11232;51.748;19.390;2023-08-01T14:43:01;21.00;99.90
22132;DHT22;11232;51.748;19.390;2023-08-01T14:45:27;20.70;99.90
22132;DHT22;11232;51.748;19.390;2023-08-01T14:47:52;20.80;99.90
22132;DHT22;11232;51.748;19.390;2023-08-01T14:50:18;21.00;99.90
22132;DHT22;11232;51.748;19.390;2023-08-01T14:52:44;21.00;99.90
22132;DHT22;11232;51.748;19.390;2023-08-01T14:55:10;21.10;99.90
22132;DHT22;11232;51.748;19.390;2023-08-01T14:57:35;21.20;99.90
22132;DHT22;11232;51.748;19.390;2023-08-01T15:00:02;21.20;99.90
22132;DHT22;11232;51.748;19.390;2023-08-01T15:02:28;21.20;99.90
22132;DHT22;11232;51.748;19.390;2023-08-01T15:04:55;21.10;99.90
22132;DHT22;11232;51.748;19.390;2023-08-01T15:07:22;21.10;99.90
22132;DHT22;11232;51.748;19.390;2023-08-01T15:09:49;21.10;99.90
22132;DHT22;11232;51.748;19.390;2023-08-01T15:12:18;21.10;99.90
22132;DHT22;11232;51.748;19.390;2023-08-01T15:14:52;21.30;99.90
22132;DHT22;11232;51.748;19.390;2023-08-01T15:17:18;21.40;99.90
22132;DHT22;11232;51.748;19.390;2023-08-01T15:19:43;21.60;99.90
22132;DHT22;11232;51.748;19.390;2023-08-01T15:22:10;21.70;99.90
22132;DHT22;11232;51.748;19.390;2023-08-01T15:24:35;21.90;99.90
22132;DHT22;11232;51.748;19.390;2023-08-01T15:27:01;22.10;99.90
22132;DHT22;11232;51.748;19.390;2023-08-01T15:29:27;22.30;99.90
22132;DHT22;11232;51.748;19.390;2023-08-01T15:31:53;22.00;99.90
22132;DHT22;11232;51.748;19.390;2023-08-01T15:34:19;21.80;99.90
22132;DHT22;11232;51.748;19.390;2023-08-01T15:36:47;21.50;99.90
22132;DHT22;11232;51.748;19.390;2023-08-01T15:39:14;21.40;99.90
22132;DHT22;11232;51.748;19.390;2023-08-01T15:41:40;21.40;99.90
22132;DHT22;11232;51.748;19.390;2023-08-01T15:44:05;21.40;99.90
22132;DHT22;11232;51.748;19.390;2023-08-01T15:46:32;21.40;99.90
22132;DHT22;11232;51.748;19.390;2023-08-01T15:48:58;21.50;99.90
22132;DHT22;11232;51.748;19.390;2023-08-01T15:51:24;21.60;99.90
22132;DHT22;11232;51.748;19.390;2023-08-01T15:53:49;21.60;99.90
22132;DHT22;11232;51.748;19.390;2023-08-01T15:56:15;21.60;99.90
22132;DHT22;11232;51.748;19.390;2023-08-01T15:58:40;21.50;99.90
22132;DHT22;11232;51.748;19.390;2023-08-01T16:01:06;21.40;99.90
22132;DHT22;11232;51.748;19.390;2023-08-01T16:03:37;21.30;99.90
22132;DHT22;11232;51.748;19.390;2023-08-01T16:06:04;21.40;99.90
22132;DHT22;11232;51.748;19.390;2023-08-01T16:08:30;21.30;99.90
22132;DHT22;11232;51.748;19.390;2023-08-01T16:10:55;21.30;99.90
22132;DHT22;11232;51.748;19.390;2023-08-01T16:13:21;21.30;99.90
22132;DHT22;11232;51.748;19.390;2023-08-01T16:15:46;21.20;99.90
22132;DHT22;11232;51.748;19.390;2023-08-01T16:18:12;21.10;99.90
22132;DHT22;11232;51.748;19.390;2023-08-01T16:20:38;21.00;99.90
22132;DHT22;11232;51.748;19.390;2023-08-01T16:23:03;21.10;99.90
22132;DHT22;11232;51.748;19.390;2023-08-01T16:25:29;21.00;99.90
22132;DHT22;11232;51.748;19.390;2023-08-01T16:27:55;21.10;99.90
22132;DHT22;11232;51.748;19.390;2023-08-01T16:30:20;21.00;99.90
22132;DHT22;11232;51.748;19.390;2023-08-01T16:32:46;21.00;99.90
22132;DHT22;11232;51.748;19.390;2023-08-01T16:35:12;21.10;99.90
22132;DHT22;11232;51.748;19.390;2023-08-01T16:37:39;21.10;99.90
22132;DHT22;11232;51.748;19.390;2023-08-01T16:40:05;21.00;99.90
22132;DHT22;11232;51.748;19.390;2023-08-01T16:42:31;20.90;99.90
22132;DHT22;11232;51.748;19.390;2023-08-01T16:44:57;21.00;99.90
22132;DHT22;11232;51.748;19.390;2023-08-01T16:47:22;21.00;99.90
22132;DHT22;11232;51.748;19.390;2023-08-01T16:49:53;20.90;99.90
22132;DHT22;11232;51.748;19.390;2023-08-01T16:52:20;20.90;99.90
22132;DHT22;11232;51.748;19.390;2023-08-01T16:54:46;20.90;99.90
22132;DHT22;11232;51.748;19.390;2023-08-01T16:57:11;20.90;99.90
22132;DHT22;11232;51.748;19.390;2023-08-01T16:59:38;20.90;99.90
22132;DHT22;11232;51.748;19.390;2023-08-01T17:02:08;20.80;99.90
22132;DHT22;11232;51.748;19.390;2023-08-01T17:04:36;20.80;99.90
22132;DHT22;11232;51.748;19.390;2023-08-01T17:07:02;20.80;99.90
22132;DHT22;11232;51.748;19.390;2023-08-01T17:09:28;20.50;99.90
22132;DHT22;11232;51.748;19.390;2023-08-01T17:11:54;20.40;99.90
22132;DHT22;11232;51.748;19.390;2023-08-01T17:14:21;20.30;99.90
